Time;durP1;ratioP1;P1;durP2;ratioP2;P2;SDS_P1;SDS_P2;PMS_P1;PMS_P2;Temp;Humidity;BMP_temperature;BMP_pressure;BME280_temperature;BME280_humidity;BME280_pressure;Samples;Min_cycle;Max_cycle;Signal;HPM_P1;HPM_P2
2021/06/27 00:00:33;;;;;;;16.77;15.57;;;24.90;94.90;;;;;;3596046;40;20823;-63
2021/06/27 00:03:21;;;;;;;16.27;15.00;;;24.90;94.80;;;;;;3587138;40;20477;-63
2021/06/27 00:05:49;;;;;;;16.60;15.53;;;24.90;94.80;;;;;;3595886;40;20469;-63
2021/06/27 00:08:17;;;;;;;17.20;16.20;;;24.90;94.80;;;;;;3595457;39;20481;-63
2021/06/27 00:10:46;;;;;;;17.20;16.00;;;24.90;94.80;;;;;;3594051;40;20473;-63
2021/06/27 00:13:14;;;;;;;15.90;14.80;;;24.90;94.70;;;;;;3595942;40;20589;-63
2021/06/27 00:15:46;;;;;;;16.03;15.13;;;24.90;94.70;;;;;;3595868;40;20465;-63
2021/06/27 00:18:16;;;;;;;16.60;15.50;;;24.90;94.70;;;;;;3595919;40;20477;-63
2021/06/27 00:20:47;;;;;;;17.60;16.40;;;24.90;94.70;;;;;;3595325;40;20535;-63
2021/06/27 00:23:16;;;;;;;16.53;15.23;;;24.90;94.70;;;;;;3596360;40;20493;-63
2021/06/27 00:25:44;;;;;;;15.60;14.70;;;24.90;94.60;;;;;;3594862;40;20477;-62
2021/06/27 00:28:11;;;;;;;15.17;14.30;;;24.90;94.60;;;;;;3594895;40;20529;-63
2021/06/27 00:30:40;;;;;;;15.97;14.87;;;24.90;94.60;;;;;;3595283;40;20489;-63
2021/06/27 00:33:07;;;;;;;15.37;14.50;;;24.90;94.60;;;;;;3595660;40;20481;-63
2021/06/27 00:35:35;;;;;;;16.87;15.77;;;24.90;94.60;;;;;;3596029;40;20565;-64
2021/06/27 00:38:04;;;;;;;14.40;13.53;;;24.90;94.50;;;;;;3595594;40;20505;-63
2021/06/27 00:40:32;;;;;;;16.27;15.27;;;24.90;94.50;;;;;;3595940;40;20691;-64
2021/06/27 00:43:01;;;;;;;15.80;14.80;;;24.90;94.50;;;;;;3596029;40;20511;-63
2021/06/27 00:45:29;;;;;;;15.97;14.97;;;24.90;94.40;;;;;;3595697;40;20481;-63
2021/06/27 00:47:58;;;;;;;15.80;14.67;;;24.90;94.40;;;;;;3594764;40;20485;-63
2021/06/27 00:50:29;;;;;;;16.27;15.37;;;24.90;94.40;;;;;;3586247;40;20485;-63
2021/06/27 00:52:56;;;;;;;16.30;15.33;;;24.90;94.40;;;;;;3595698;40;20489;-64
2021/06/27 00:55:25;;;;;;;16.20;15.20;;;24.90;94.30;;;;;;3595875;40;21063;-63
2021/06/27 00:57:54;;;;;;;16.13;15.20;;;24.80;94.20;;;;;;3595412;40;20486;-63
2021/06/27 01:00:23;;;;;;;16.40;15.30;;;24.90;94.30;;;;;;3595914;40;20801;-63
2021/06/27 01:02:51;;;;;;;16.93;15.90;;;24.90;94.20;;;;;;3595310;40;20469;-63
2021/06/27 01:05:19;;;;;;;16.30;15.20;;;24.80;94.10;;;;;;3595919;40;20550;-64
2021/06/27 01:07:47;;;;;;;16.37;15.17;;;24.90;94.20;;;;;;3595522;40;20501;-63
2021/06/27 01:10:15;;;;;;;15.73;14.73;;;24.80;94.10;;;;;;3595090;40;20477;-63
2021/06/27 01:12:44;;;;;;;16.50;15.50;;;24.80;94.00;;;;;;3595898;40;20500;-63
2021/06/27 01:15:13;;;;;;;15.97;15.07;;;24.80;94.00;;;;;;3586536;40;20480;-63
2021/06/27 01:17:43;;;;;;;16.27;14.90;;;24.80;94.00;;;;;;3595926;40;20469;-63
2021/06/27 01:20:12;;;;;;;16.83;15.60;;;24.80;94.00;;;;;;3595210;39;20476;-63
2021/06/27 01:22:41;;;;;;;17.37;16.20;;;24.80;93.90;;;;;;3595303;40;20481;-63
2021/06/27 01:25:24;;;;;;;16.13;14.80;;;24.80;93.90;;;;;;3595521;40;20492;-63
2021/06/27 01:27:51;;;;;;;16.53;15.43;;;24.80;93.90;;;;;;3586176;40;20981;-63
2021/06/27 01:30:20;;;;;;;16.90;15.60;;;24.80;93.80;;;;;;3595704;40;20483;-63
2021/06/27 01:32:51;;;;;;;16.07;15.13;;;24.80;93.80;;;;;;3596372;40;20736;-63
2021/06/27 01:35:21;;;;;;;15.60;14.70;;;24.80;93.80;;;;;;3596013;40;20477;-63
2021/06/27 01:37:52;;;;;;;15.17;14.27;;;24.90;93.80;;;;;;3595353;40;20465;-63
2021/06/27 01:40:22;;;;;;;15.00;14.00;;;24.80;93.70;;;;;;3595109;40;20492;-63
2021/06/27 01:42:50;;;;;;;15.63;14.73;;;24.80;93.60;;;;;;3595464;40;20958;-64
2021/06/27 01:45:23;;;;;;;15.93;14.83;;;24.90;93.60;;;;;;3595240;40;20481;-63
2021/06/27 01:47:54;;;;;;;14.53;13.70;;;24.80;93.60;;;;;;3595458;40;20488;-63
2021/06/27 01:50:22;;;;;;;14.30;13.30;;;24.80;93.50;;;;;;3595990;40;20519;-63
2021/06/27 01:52:51;;;;;;;15.63;14.57;;;24.90;93.60;;;;;;3595259;40;20477;-63
2021/06/27 01:55:18;;;;;;;14.57;13.67;;;24.80;93.50;;;;;;3595604;40;20698;-63
2021/06/27 01:57:45;;;;;;;15.13;14.03;;;24.80;93.40;;;;;;3595314;40;20501;-64
2021/06/27 02:00:14;;;;;;;14.47;13.40;;;24.80;93.40;;;;;;3595999;40;20706;-63
2021/06/27 02:02:41;;;;;;;14.87;13.60;;;24.80;93.40;;;;;;3594437;40;20481;-63
2021/06/27 02:05:09;;;;;;;14.87;13.97;;;24.80;93.40;;;;;;3595634;40;20483;-63
2021/06/27 02:07:37;;;;;;;13.47;12.77;;;24.80;93.30;;;;;;3595503;40;20493;-64
2021/06/27 02:10:09;;;;;;;14.57;13.67;;;24.80;93.30;;;;;;3595369;40;20481;-63
2021/06/27 02:12:36;;;;;;;13.90;13.10;;;24.80;93.30;;;;;;3595479;40;20902;-63
2021/06/27 02:15:05;;;;;;;14.70;13.57;;;24.80;93.30;;;;;;3595604;40;20570;-63
2021/06/27 02:17:32;;;;;;;13.60;12.80;;;24.80;93.20;;;;;;3595629;40;20842;-63
2021/06/27 02:19:59;;;;;;;13.30;12.60;;;24.80;93.20;;;;;;3595486;40;20566;-63
2021/06/27 02:22:26;;;;;;;14.83;13.93;;;24.80;93.20;;;;;;3595474;40;20474;-63
2021/06/27 02:24:55;;;;;;;14.00;13.10;;;24.80;93.20;;;;;;3594746;40;20554;-64
2021/06/27 02:27:23;;;;;;;13.97;13.07;;;24.80;93.10;;;;;;3594301;40;20493;-63
2021/06/27 02:29:51;;;;;;;15.03;14.03;;;24.80;93.10;;;;;;3594821;40;20973;-64
2021/06/27 02:32:18;;;;;;;15.20;14.13;;;24.80;93.10;;;;;;3586295;40;20473;-63
2021/06/27 02:34:45;;;;;;;14.53;13.63;;;24.80;93.00;;;;;;3596074;40;20550;-63
2021/06/27 02:37:12;;;;;;;16.47;15.47;;;24.80;93.00;;;;;;3595469;40;20477;-63
2021/06/27 02:39:39;;;;;;;15.17;14.27;;;24.80;93.00;;;;;;3594850;40;20879;-64
2021/06/27 02:42:06;;;;;;;15.07;14.17;;;24.80;92.90;;;;;;3595215;40;20501;-63
2021/06/27 02:44:35;;;;;;;16.30;15.20;;;24.80;92.90;;;;;;3595986;40;20526;-63
2021/06/27 02:47:03;;;;;;;15.43;14.33;;;24.80;92.90;;;;;;3595376;40;20481;-63
2021/06/27 02:49:31;;;;;;;15.83;14.73;;;24.80;92.90;;;;;;3595034;40;20517;-63
2021/06/27 02:51:58;;;;;;;14.27;13.47;;;24.80;92.90;;;;;;3594669;40;20538;-63
2021/06/27 02:54:25;;;;;;;15.50;14.40;;;24.80;92.90;;;;;;3595871;40;20497;-63
2021/06/27 02:56:55;;;;;;;15.70;14.70;;;24.80;92.80;;;;;;3595736;40;20931;-63
2021/06/27 02:59:22;;;;;;;16.27;15.30;;;24.80;92.80;;;;;;3594676;40;20492;-63
2021/06/27 03:01:50;;;;;;;16.63;15.50;;;24.80;92.80;;;;;;3595319;40;20481;-63
2021/06/27 03:04:17;;;;;;;15.70;14.77;;;24.80;92.80;;;;;;3595219;40;20488;-63
2021/06/27 03:06:44;;;;;;;15.53;14.73;;;24.80;92.80;;;;;;3586332;40;20485;-63
2021/06/27 03:09:12;;;;;;;17.43;16.33;;;24.80;92.70;;;;;;3595155;40;20486;-63
2021/06/27 03:11:39;;;;;;;17.47;16.20;;;24.80;92.70;;;;;;3595433;40;20485;-63
2021/06/27 03:14:06;;;;;;;17.17;16.07;;;24.80;92.70;;;;;;3594889;40;20760;-63
2021/06/27 03:16:33;;;;;;;16.90;15.90;;;24.80;92.70;;;;;;3594359;40;21080;-63
2021/06/27 03:19:01;;;;;;;16.73;15.60;;;24.80;92.60;;;;;;3586230;40;20879;-63
2021/06/27 03:21:28;;;;;;;15.40;14.50;;;24.80;92.60;;;;;;3595507;40;21151;-63
2021/06/27 03:23:55;;;;;;;16.20;15.10;;;24.80;92.60;;;;;;3595370;40;20569;-63
2021/06/27 03:26:22;;;;;;;14.83;13.93;;;24.80;92.60;;;;;;3595083;40;20484;-63
2021/06/27 03:28:51;;;;;;;15.60;14.70;;;24.80;92.50;;;;;;3586456;40;20485;-63
2021/06/27 03:31:19;;;;;;;16.33;15.30;;;24.80;92.50;;;;;;3595804;40;20481;-63
2021/06/27 03:33:46;;;;;;;15.00;14.20;;;24.80;92.50;;;;;;3595830;40;20537;-63
2021/06/27 03:36:14;;;;;;;14.87;13.87;;;24.80;92.50;;;;;;3595039;40;20487;-63
2021/06/27 03:38:46;;;;;;;15.53;14.73;;;24.80;92.50;;;;;;3594614;40;20558;-64
2021/06/27 03:41:19;;;;;;;15.30;14.40;;;24.80;92.50;;;;;;3594453;39;21115;-63
2021/06/27 03:43:46;;;;;;;15.03;14.13;;;24.80;92.50;;;;;;3596471;40;20481;-63
2021/06/27 03:46:13;;;;;;;15.87;14.97;;;24.80;92.40;;;;;;3597227;40;20484;-63
2021/06/27 03:48:41;;;;;;;16.23;15.03;;;24.80;92.40;;;;;;3596076;40;21087;-64
2021/06/27 03:51:08;;;;;;;15.40;14.40;;;24.80;92.40;;;;;;3596923;40;20513;-63
2021/06/27 03:53:37;;;;;;;15.03;14.23;;;24.80;92.40;;;;;;3597031;40;20501;-63
2021/06/27 03:56:04;;;;;;;15.00;14.10;;;24.80;92.30;;;;;;3596482;40;20491;-63
2021/06/27 03:58:31;;;;;;;16.07;14.97;;;24.80;92.30;;;;;;3596376;40;20488;-62
2021/06/27 04:00:59;;;;;;;15.07;14.27;;;24.80;92.30;;;;;;3596090;40;20477;-63
2021/06/27 04:03:26;;;;;;;15.87;14.77;;;24.80;92.30;;;;;;3596759;40;20476;-64
2021/06/27 04:05:53;;;;;;;15.80;14.87;;;24.80;92.30;;;;;;3595487;40;21039;-63
2021/06/27 04:08:20;;;;;;;15.30;14.33;;;24.80;92.30;;;;;;3595927;40;20496;-63
2021/06/27 04:10:49;;;;;;;15.37;14.57;;;24.80;92.30;;;;;;3596045;40;20593;-63
2021/06/27 04:13:16;;;;;;;15.77;14.70;;;24.80;92.30;;;;;;3595984;40;20489;-63
2021/06/27 04:15:43;;;;;;;15.77;14.80;;;24.80;92.20;;;;;;3595353;40;20469;-63
2021/06/27 04:18:10;;;;;;;15.00;14.10;;;24.80;92.30;;;;;;3595709;40;20488;-63
2021/06/27 04:20:38;;;;;;;15.63;14.73;;;24.80;92.20;;;;;;3595904;40;21155;-63
2021/06/27 04:23:06;;;;;;;16.37;15.30;;;24.70;92.20;;;;;;3595904;40;20570;-64
2021/06/27 04:25:35;;;;;;;15.00;14.00;;;24.70;92.20;;;;;;3596066;40;20494;-64
2021/06/27 04:28:04;;;;;;;15.40;14.60;;;24.80;92.20;;;;;;3596567;40;20533;-63
2021/06/27 04:30:32;;;;;;;15.60;14.77;;;24.80;92.20;;;;;;3595509;40;20477;-63
2021/06/27 04:32:59;;;;;;;15.13;14.23;;;24.80;92.20;;;;;;3595750;40;20831;-63
2021/06/27 04:35:26;;;;;;;14.90;13.97;;;24.80;92.20;;;;;;3596482;40;20481;-63
2021/06/27 04:37:53;;;;;;;15.00;14.20;;;24.80;92.20;;;;;;3595854;40;20482;-63
2021/06/27 04:40:20;;;;;;;15.33;14.53;;;24.70;92.20;;;;;;3595828;40;20477;-63
2021/06/27 04:42:47;;;;;;;14.80;14.10;;;24.80;92.30;;;;;;3596118;40;20493;-63
2021/06/27 04:45:16;;;;;;;15.83;14.93;;;24.80;92.30;;;;;;3586320;40;20485;-64
2021/06/27 04:47:43;;;;;;;14.67;13.87;;;24.80;92.30;;;;;;3596286;40;20610;-63
2021/06/27 04:50:12;;;;;;;15.70;14.70;;;24.80;92.30;;;;;;3595935;40;21122;-62
2021/06/27 04:52:39;;;;;;;15.30;14.30;;;24.80;92.30;;;;;;3595726;39;20775;-62
2021/06/27 04:55:08;;;;;;;15.40;14.50;;;24.80;92.40;;;;;;3594867;40;20481;-62
2021/06/27 04:57:35;;;;;;;23.07;14.90;;;24.80;92.40;;;;;;3594348;40;20477;-62
2021/06/27 05:00:04;;;;;;;16.00;14.67;;;24.80;92.40;;;;;;3596288;40;20785;-62
2021/06/27 05:02:33;;;;;;;14.90;14.10;;;24.80;92.50;;;;;;3595831;40;21124;-61
2021/06/27 05:05:01;;;;;;;15.80;14.90;;;24.80;92.50;;;;;;3595363;40;20564;-63
2021/06/27 05:07:28;;;;;;;15.70;14.80;;;24.80;92.50;;;;;;3595283;40;20524;-62
2021/06/27 05:09:56;;;;;;;14.90;14.10;;;24.80;92.50;;;;;;3595215;40;20489;-62
2021/06/27 05:12:24;;;;;;;15.03;14.13;;;24.80;92.50;;;;;;3585670;40;20469;-62
2021/06/27 05:14:51;;;;;;;15.17;14.23;;;24.80;92.50;;;;;;3595185;40;20481;-63
2021/06/27 05:17:19;;;;;;;15.03;14.17;;;24.80;92.50;;;;;;3594778;40;20504;-62
2021/06/27 05:19:47;;;;;;;15.23;14.40;;;24.80;92.50;;;;;;3595096;40;20473;-62
2021/06/27 05:22:15;;;;;;;16.57;15.47;;;24.80;92.80;;;;;;3595031;40;20493;-63
2021/06/27 05:24:42;;;;;;;15.83;14.77;;;24.80;92.50;;;;;;3594631;40;20476;-65
2021/06/27 05:27:09;;;;;;;15.80;14.73;;;24.80;92.50;;;;;;3595194;40;20496;-65
2021/06/27 05:29:36;;;;;;;14.93;13.93;;;24.80;92.50;;;;;;3594593;40;20481;-65
2021/06/27 05:32:04;;;;;;;14.87;13.97;;;24.80;92.60;;;;;;3594487;40;20489;-65
2021/06/27 05:34:31;;;;;;;15.10;14.17;;;24.70;92.70;;;;;;3594650;40;20877;-65
2021/06/27 05:37:00;;;;;;;15.37;14.50;;;24.60;92.80;;;;;;3595457;40;20473;-65
2021/06/27 05:39:27;;;;;;;14.67;13.87;;;24.60;92.90;;;;;;3585524;40;20484;-65
2021/06/27 05:41:54;;;;;;;15.50;14.50;;;24.50;93.00;;;;;;3595497;40;20500;-65
2021/06/27 05:44:21;;;;;;;15.87;14.87;;;24.50;93.00;;;;;;3594464;40;20578;-65
2021/06/27 05:46:48;;;;;;;14.83;13.93;;;24.40;93.00;;;;;;3594801;40;20706;-65
2021/06/27 05:49:16;;;;;;;15.50;14.60;;;24.40;93.20;;;;;;3595197;40;20492;-65
2021/06/27 05:51:43;;;;;;;15.17;14.37;;;24.40;93.50;;;;;;3595842;40;20580;-65
2021/06/27 05:54:11;;;;;;;14.20;13.30;;;24.30;93.30;;;;;;3595278;40;20561;-65
2021/06/27 05:56:38;;;;;;;15.03;13.97;;;24.30;93.40;;;;;;3595527;40;20875;-65
2021/06/27 05:59:06;;;;;;;14.33;13.63;;;24.30;93.50;;;;;;3594902;40;20493;-64
2021/06/27 06:01:33;;;;;;;15.97;14.90;;;24.40;93.70;;;;;;3594608;40;20521;-64
2021/06/27 06:04:00;;;;;;;15.90;15.00;;;24.40;93.90;;;;;;3594586;40;20477;-64
2021/06/27 06:06:27;;;;;;;15.70;14.80;;;24.30;94.10;;;;;;3594104;40;20473;-65
2021/06/27 06:08:54;;;;;;;15.60;14.70;;;24.30;94.40;;;;;;3594098;40;20867;-64
2021/06/27 06:11:25;;;;;;;14.73;13.73;;;24.30;94.50;;;;;;3593564;40;20567;-64
2021/06/27 06:13:53;;;;;;;15.53;14.47;;;24.30;94.60;;;;;;3592587;40;20671;-64
2021/06/27 06:16:20;;;;;;;15.27;14.37;;;24.30;94.70;;;;;;3592631;40;21127;-65
2021/06/27 06:18:47;;;;;;;14.90;14.00;;;24.30;94.70;;;;;;3593903;40;20979;-64
2021/06/27 06:21:15;;;;;;;15.50;14.70;;;24.40;94.80;;;;;;3593363;40;20840;-65
2021/06/27 06:23:43;;;;;;;14.63;13.73;;;24.30;94.70;;;;;;3594390;40;20500;-64
2021/06/27 06:26:10;;;;;;;15.00;13.97;;;24.40;94.90;;;;;;3594160;40;20611;-64
2021/06/27 06:28:40;;;;;;;14.90;14.10;;;24.40;94.90;;;;;;3595015;40;20501;-64
2021/06/27 06:31:07;;;;;;;13.57;12.90;;;24.40;94.90;;;;;;3593627;40;20537;-65
2021/06/27 06:33:35;;;;;;;15.20;14.40;;;24.40;94.90;;;;;;3593260;40;20473;-65
2021/06/27 06:36:02;;;;;;;13.47;12.77;;;24.50;95.00;;;;;;3594576;40;20489;-64
2021/06/27 06:38:29;;;;;;;13.77;13.00;;;24.50;95.20;;;;;;3594561;40;20505;-64
2021/06/27 06:40:56;;;;;;;13.93;13.13;;;24.50;95.40;;;;;;3593771;40;20497;-65
2021/06/27 06:43:23;;;;;;;13.70;12.80;;;24.50;95.40;;;;;;3594230;40;20521;-65
2021/06/27 06:45:52;;;;;;;14.20;13.40;;;24.50;95.70;;;;;;3594298;40;20477;-64
2021/06/27 06:48:19;;;;;;;14.43;13.33;;;24.50;95.60;;;;;;3584642;40;20550;-65
2021/06/27 06:50:46;;;;;;;13.57;12.87;;;24.50;95.50;;;;;;3593201;40;20547;-64
2021/06/27 06:53:13;;;;;;;14.70;13.80;;;24.60;95.50;;;;;;3592057;40;21168;-64
2021/06/27 06:55:40;;;;;;;14.97;14.00;;;24.60;95.40;;;;;;3591842;40;20481;-64
2021/06/27 06:58:07;;;;;;;15.00;14.20;;;24.60;95.30;;;;;;3591351;40;20473;-64
2021/06/27 07:00:35;;;;;;;15.00;14.20;;;24.60;95.40;;;;;;3591972;40;21009;-64
2021/06/27 07:03:04;;;;;;;14.30;13.53;;;24.60;95.30;;;;;;3583936;40;20485;-64
2021/06/27 07:05:31;;;;;;;14.73;13.93;;;24.60;95.20;;;;;;3593613;40;20485;-65
2021/06/27 07:07:58;;;;;;;14.37;13.43;;;24.60;95.20;;;;;;3593568;40;20484;-64
2021/06/27 07:10:25;;;;;;;14.17;13.27;;;24.70;95.20;;;;;;3592953;40;20491;-65
2021/06/27 07:12:52;;;;;;;15.70;14.77;;;24.70;95.20;;;;;;3593683;40;20914;-65
2021/06/27 07:15:19;;;;;;;14.57;13.30;;;24.70;95.20;;;;;;3594294;40;20483;-65
2021/06/27 07:17:46;;;;;;;13.57;12.63;;;24.70;95.10;;;;;;3593846;39;20469;-65
2021/06/27 07:20:15;;;;;;;14.97;14.07;;;24.70;95.00;;;;;;3593930;40;20922;-65
2021/06/27 07:22:42;;;;;;;14.33;13.53;;;24.70;95.10;;;;;;3592487;40;20785;-64
2021/06/27 07:25:11;;;;;;;14.20;13.40;;;24.80;95.20;;;;;;3593380;40;21231;-65
2021/06/27 07:27:38;;;;;;;13.73;12.80;;;24.80;95.10;;;;;;3591768;40;20477;-64
2021/06/27 07:30:08;;;;;;;13.60;12.90;;;24.80;95.10;;;;;;3594068;40;20484;-64
2021/06/27 07:32:35;;;;;;;14.10;13.40;;;24.80;95.10;;;;;;3593982;40;20481;-64
2021/06/27 07:35:02;;;;;;;13.93;13.13;;;24.80;95.10;;;;;;3594016;40;20481;-65
2021/06/27 07:37:30;;;;;;;14.43;13.50;;;24.80;95.20;;;;;;3585234;40;20477;-65
2021/06/27 07:39:58;;;;;;;14.33;13.57;;;24.80;95.10;;;;;;3594620;40;20471;-65
2021/06/27 07:42:25;;;;;;;13.17;12.47;;;24.80;95.00;;;;;;3592994;40;20504;-65
2021/06/27 07:44:52;;;;;;;12.87;12.27;;;24.80;95.00;;;;;;3592907;40;20496;-65
2021/06/27 07:47:19;;;;;;;12.30;11.70;;;24.80;94.90;;;;;;3588415;40;20488;-65
2021/06/27 07:49:46;;;;;;;13.13;12.50;;;24.80;94.80;;;;;;3593327;40;20479;-64
2021/06/27 07:52:13;;;;;;;13.90;13.17;;;24.80;94.80;;;;;;3592715;40;20489;-65
2021/06/27 07:54:42;;;;;;;12.77;11.97;;;24.90;94.80;;;;;;3588489;40;20711;-65
2021/06/27 07:57:09;;;;;;;12.93;12.17;;;24.80;94.70;;;;;;3587778;40;20485;-65
2021/06/27 07:59:37;;;;;;;13.87;13.00;;;24.90;94.70;;;;;;3593705;40;20498;-65
2021/06/27 08:02:04;;;;;;;12.63;11.83;;;24.90;94.70;;;;;;3592570;40;20567;-65
2021/06/27 08:04:32;;;;;;;13.23;12.50;;;24.90;94.70;;;;;;3587839;40;20480;-65
2021/06/27 08:06:59;;;;;;;13.37;12.67;;;24.90;94.60;;;;;;3588119;40;20484;-65
2021/06/27 08:09:26;;;;;;;14.63;13.80;;;24.90;94.60;;;;;;3588300;40;20563;-65
2021/06/27 08:11:54;;;;;;;14.87;13.90;;;24.90;94.60;;;;;;3592649;40;20481;-64
2021/06/27 08:14:21;;;;;;;14.13;13.23;;;24.90;94.60;;;;;;3594501;40;20696;-65
2021/06/27 08:16:49;;;;;;;14.20;13.50;;;24.90;94.60;;;;;;3592917;40;20485;-64
2021/06/27 08:19:16;;;;;;;14.80;13.90;;;24.90;94.60;;;;;;3593365;40;20500;-65
2021/06/27 08:21:43;;;;;;;13.97;13.07;;;24.90;94.50;;;;;;3589196;40;20495;-65
2021/06/27 08:24:10;;;;;;;14.63;13.50;;;24.90;94.50;;;;;;3588401;40;20497;-64
2021/06/27 08:26:37;;;;;;;14.30;13.50;;;24.90;94.60;;;;;;3589800;40;20887;-64
2021/06/27 08:29:06;;;;;;;15.10;14.20;;;24.90;94.50;;;;;;3593607;40;20489;-64
2021/06/27 08:31:33;;;;;;;13.57;12.87;;;24.90;94.50;;;;;;3593819;40;20491;-64
2021/06/27 08:34:00;;;;;;;14.30;13.50;;;24.90;94.50;;;;;;3594374;40;21109;-64
2021/06/27 08:36:29;;;;;;;14.93;14.03;;;24.90;94.50;;;;;;3593306;40;20477;-64
2021/06/27 08:38:57;;;;;;;14.07;13.17;;;24.90;94.50;;;;;;3593537;40;20473;-64
2021/06/27 08:41:24;;;;;;;15.53;14.67;;;24.90;94.50;;;;;;3593802;40;20538;-64
2021/06/27 08:43:51;;;;;;;15.43;14.53;;;24.90;94.50;;;;;;3594451;40;20800;-64
2021/06/27 08:46:21;;;;;;;16.17;15.27;;;25.00;94.50;;;;;;3583968;40;20551;-64
2021/06/27 08:48:48;;;;;;;15.10;14.30;;;24.90;94.40;;;;;;3593171;40;20784;-64
2021/06/27 08:51:15;;;;;;;14.60;13.80;;;24.90;94.40;;;;;;3592226;40;20477;-64
2021/06/27 08:53:43;;;;;;;13.70;12.90;;;24.90;94.40;;;;;;3593495;40;20472;-64
2021/06/27 08:56:12;;;;;;;14.57;13.67;;;24.90;94.40;;;;;;3584432;40;20482;-64
2021/06/27 08:58:41;;;;;;;15.03;14.13;;;24.90;94.30;;;;;;3593129;40;20525;-64
2021/06/27 09:01:13;;;;;;;14.90;14.00;;;25.00;94.40;;;;;;3592517;40;20912;-64
2021/06/27 09:03:43;;;;;;;14.30;13.50;;;25.00;94.40;;;;;;3584185;40;20472;-64
2021/06/27 09:06:10;;;;;;;15.80;14.80;;;25.00;94.30;;;;;;3594135;40;20477;-64
2021/06/27 09:08:38;;;;;;;15.43;14.60;;;24.90;94.30;;;;;;3593918;40;20488;-64
2021/06/27 09:11:13;;;;;;;14.20;13.40;;;25.00;94.30;;;;;;3593534;40;20493;-64
2021/06/27 09:13:43;;;;;;;15.90;15.00;;;25.00;94.30;;;;;;3592748;39;20504;-64
2021/06/27 09:16:22;;;;;;;15.73;14.80;;;25.00;94.30;;;;;;3593200;40;20473;-64
2021/06/27 09:18:51;;;;;;;14.00;13.20;;;25.00;94.30;;;;;;3593141;40;20477;-64
2021/06/27 09:21:19;;;;;;;15.80;14.90;;;25.00;94.20;;;;;;3592059;40;20492;-64
2021/06/27 09:23:48;;;;;;;14.07;13.27;;;25.00;94.20;;;;;;3593571;40;20753;-64
2021/06/27 09:26:27;;;;;;;14.23;13.33;;;25.00;94.20;;;;;;3583182;40;20489;-64
2021/06/27 09:28:55;;;;;;;14.00;13.23;;;25.00;94.20;;;;;;3593623;40;20491;-64
2021/06/27 09:31:36;;;;;;;13.57;12.77;;;25.00;94.10;;;;;;3593194;40;20525;-65
2021/06/27 09:34:07;;;;;;;14.23;13.37;;;25.00;94.10;;;;;;3592799;40;20529;-64
2021/06/27 09:36:37;;;;;;;15.87;14.80;;;25.00;94.10;;;;;;3594302;40;20488;-64
2021/06/27 09:39:13;;;;;;;15.23;14.33;;;25.00;94.10;;;;;;3592554;39;20485;-64
2021/06/27 09:41:49;;;;;;;14.30;13.50;;;25.00;94.00;;;;;;3591893;40;20469;-64
2021/06/27 09:44:16;;;;;;;14.90;14.00;;;25.00;94.00;;;;;;3592639;40;20481;-64
2021/06/27 09:46:46;;;;;;;14.97;14.07;;;25.00;94.00;;;;;;3591782;40;20576;-64
2021/06/27 09:49:16;;;;;;;14.13;13.33;;;25.00;93.90;;;;;;3582880;40;20492;-64
2021/06/27 09:51:49;;;;;;;15.17;14.30;;;25.00;93.90;;;;;;3592848;40;20477;-64
2021/06/27 09:54:18;;;;;;;15.33;14.43;;;25.00;93.90;;;;;;3592752;40;20479;-65
2021/06/27 09:56:46;;;;;;;15.60;14.60;;;25.00;93.90;;;;;;3591539;40;20546;-65
2021/06/27 09:59:15;;;;;;;16.37;15.37;;;25.00;93.80;;;;;;3593088;40;20969;-64
2021/06/27 10:01:42;;;;;;;14.97;14.17;;;25.00;93.80;;;;;;3592142;40;20864;-64
2021/06/27 10:04:11;;;;;;;16.03;15.03;;;25.00;93.80;;;;;;3592174;40;20489;-64
2021/06/27 10:06:50;;;;;;;14.70;13.90;;;25.00;93.70;;;;;;3592431;40;20561;-64
2021/06/27 10:09:20;;;;;;;16.20;15.30;;;25.00;93.70;;;;;;3592200;40;20583;-64
2021/06/27 10:12:02;;;;;;;16.40;15.40;;;25.00;93.70;;;;;;3591445;40;20538;-64
2021/06/27 10:14:31;;;;;;;16.37;15.37;;;25.00;93.60;;;;;;3591488;40;20486;-64
2021/06/27 10:16:58;;;;;;;16.10;15.20;;;25.00;93.50;;;;;;3592283;39;20948;-65
2021/06/27 10:19:26;;;;;;;16.77;15.80;;;25.00;93.50;;;;;;3591699;40;20473;-64
2021/06/27 10:21:57;;;;;;;15.80;14.97;;;25.00;93.50;;;;;;3582771;40;20548;-64
2021/06/27 10:24:25;;;;;;;16.83;15.97;;;25.00;93.40;;;;;;3591787;40;20566;-64
2021/06/27 10:26:52;;;;;;;15.50;14.60;;;25.00;93.40;;;;;;3591599;40;20968;-64
2021/06/27 10:29:21;;;;;;;16.17;15.37;;;25.00;93.40;;;;;;3591639;40;21171;-64
2021/06/27 10:31:51;;;;;;;16.17;15.27;;;25.00;93.40;;;;;;3591543;40;20511;-64
2021/06/27 10:34:19;;;;;;;15.40;14.40;;;25.00;93.30;;;;;;3591851;40;20520;-64
2021/06/27 10:36:50;;;;;;;16.50;15.50;;;25.00;93.30;;;;;;3591047;40;20570;-64
2021/06/27 10:39:20;;;;;;;15.53;14.73;;;25.00;93.30;;;;;;3592975;40;20541;-65
2021/06/27 10:42:03;;;;;;;15.23;14.23;;;25.00;93.30;;;;;;3593430;40;20481;-64
2021/06/27 10:44:51;;;;;;;15.67;14.77;;;25.00;93.30;;;;;;3590825;40;20496;-64
2021/06/27 10:47:32;;;;;;;15.70;14.80;;;25.00;93.20;;;;;;3591709;40;20574;-64
2021/06/27 10:50:00;;;;;;;15.23;14.40;;;25.00;93.20;;;;;;3592572;40;20739;-64
2021/06/27 10:52:27;;;;;;;15.07;14.27;;;25.00;93.20;;;;;;3592625;39;20848;-64
2021/06/27 10:55:19;;;;;;;14.70;13.90;;;25.00;93.20;;;;;;3584687;40;20485;-65
2021/06/27 10:57:54;;;;;;;15.00;14.10;;;25.00;93.20;;;;;;3594144;40;20508;-64
2021/06/27 11:00:22;;;;;;;15.67;14.77;;;25.00;93.10;;;;;;3592395;40;20562;-64
2021/06/27 11:02:49;;;;;;;14.03;13.23;;;25.00;93.10;;;;;;3593746;40;20489;-64
2021/06/27 11:05:39;;;;;;;14.27;13.40;;;25.00;93.10;;;;;;3594201;40;20492;-64
2021/06/27 11:08:08;;;;;;;15.13;14.33;;;25.00;93.10;;;;;;3595132;40;20477;-64
2021/06/27 11:10:37;;;;;;;14.20;13.40;;;25.00;93.00;;;;;;3593970;40;20480;-64
2021/06/27 11:13:15;;;;;;;13.70;13.00;;;25.00;93.00;;;;;;3594649;40;20820;-65
2021/06/27 11:16:03;;;;;;;13.50;12.80;;;25.00;93.00;;;;;;3592920;40;20535;-64
2021/06/27 11:18:33;;;;;;;13.47;12.77;;;25.00;93.00;;;;;;3592883;40;20577;-65
2021/06/27 11:21:12;;;;;;;13.83;13.13;;;25.00;92.90;;;;;;3592446;39;20481;-64
2021/06/27 11:24:11;;;;;;;13.67;12.93;;;25.00;92.90;;;;;;3594043;40;20518;-64
2021/06/27 11:27:04;;;;;;;14.70;13.80;;;25.00;92.90;;;;;;3592050;40;20497;-64
2021/06/27 11:29:41;;;;;;;14.40;13.60;;;25.00;92.90;;;;;;3593145;40;20602;-65
2021/06/27 11:32:45;;;;;;;13.90;13.10;;;25.00;92.80;;;;;;3592270;40;20489;-64
2021/06/27 11:35:37;;;;;;;14.27;13.37;;;25.00;92.80;;;;;;3592298;40;20530;-64
2021/06/27 11:38:05;;;;;;;14.20;13.40;;;25.00;92.70;;;;;;3588206;39;20533;-64
2021/06/27 11:40:48;;;;;;;15.00;14.10;;;25.00;92.70;;;;;;3592659;40;20534;-64
2021/06/27 11:43:17;;;;;;;13.60;12.87;;;25.00;92.70;;;;;;3593016;40;20484;-64
2021/06/27 11:45:49;;;;;;;13.83;13.13;;;25.00;92.60;;;;;;3593031;40;20477;-64
2021/06/27 11:48:19;;;;;;;13.47;12.77;;;25.00;92.60;;;;;;3592105;40;20497;-64
2021/06/27 11:50:51;;;;;;;13.23;12.53;;;25.00;92.60;;;;;;3591445;40;20500;-64
2021/06/27 11:53:24;;;;;;;14.17;13.27;;;25.00;92.60;;;;;;3592974;40;20558;-64
2021/06/27 11:56:08;;;;;;;13.47;12.77;;;25.00;92.50;;;;;;3592692;40;20488;-64
2021/06/27 11:58:37;;;;;;;14.40;13.50;;;25.00;92.50;;;;;;3593986;40;20820;-64
2021/06/27 12:01:11;;;;;;;14.57;13.67;;;25.00;92.50;;;;;;3593373;40;20549;-64
2021/06/27 12:03:47;;;;;;;13.57;12.77;;;25.00;92.50;;;;;;3593342;39;20476;-64
2021/06/27 12:06:15;;;;;;;13.50;12.80;;;25.00;92.50;;;;;;3593078;40;20473;-64
2021/06/27 12:08:49;;;;;;;14.30;13.50;;;25.00;92.40;;;;;;3593433;40;20476;-64
2021/06/27 12:11:16;;;;;;;14.40;13.60;;;25.00;92.40;;;;;;3592750;40;20485;-64
2021/06/27 12:13:45;;;;;;;13.43;12.70;;;25.00;92.40;;;;;;3593820;40;20712;-64
2021/06/27 12:16:12;;;;;;;13.33;12.63;;;25.00;92.40;;;;;;3593908;40;20570;-64
2021/06/27 12:18:39;;;;;;;14.20;13.40;;;25.00;92.30;;;;;;3593095;40;20482;-64
2021/06/27 12:21:08;;;;;;;14.37;13.47;;;25.00;92.30;;;;;;3592782;40;20656;-64
2021/06/27 12:23:38;;;;;;;14.07;13.27;;;25.00;92.30;;;;;;3593504;40;21154;-64
2021/06/27 12:26:08;;;;;;;13.63;12.93;;;25.00;92.30;;;;;;3593398;40;20551;-64
2021/06/27 12:28:37;;;;;;;13.90;13.10;;;25.00;92.30;;;;;;3594270;40;20485;-64
2021/06/27 12:31:17;;;;;;;13.33;12.63;;;25.00;92.20;;;;;;3592254;40;20499;-64
2021/06/27 12:33:46;;;;;;;14.37;13.57;;;25.00;92.20;;;;;;3592967;40;20584;-64
2021/06/27 12:36:16;;;;;;;13.57;12.87;;;25.00;92.20;;;;;;3593003;40;20915;-64
2021/06/27 12:38:50;;;;;;;14.00;13.30;;;25.00;92.20;;;;;;3593187;40;20481;-64